sensor_id;sensor_type;location;lat;lon;timestamp;P1;durP1;ratioP1;P2;durP2;ratioP2
59468;SDS011;45277;52.768;18.262;2022-12-07T00:00:48;16.55;;;8.57;;
59468;SDS011;45277;52.768;18.262;2022-12-07T00:02:19;14.60;;;7.43;;
59468;SDS011;45277;52.768;18.262;2022-12-07T00:03:52;12.73;;;6.35;;
59468;SDS011;45277;52.768;18.262;2022-12-07T00:05:25;11.52;;;5.00;;
59468;SDS011;45277;52.768;18.262;2022-12-07T00:06:56;15.00;;;8.38;;
59468;SDS011;45277;52.768;18.262;2022-12-07T00:08:28;11.70;;;6.00;;
59468;SDS011;45277;52.768;18.262;2022-12-07T00:10:00;14.50;;;7.30;;
59468;SDS011;45277;52.768;18.262;2022-12-07T00:11:31;9.32;;;6.13;;
59468;SDS011;45277;52.768;18.262;2022-12-07T00:13:04;8.48;;;6.28;;
59468;SDS011;45277;52.768;18.262;2022-12-07T00:14:35;11.43;;;6.82;;
59468;SDS011;45277;52.768;18.262;2022-12-07T00:16:08;10.30;;;6.57;;
59468;SDS011;45277;52.768;18.262;2022-12-07T00:17:44;10.00;;;6.47;;
59468;SDS011;45277;52.768;18.262;2022-12-07T00:19:15;9.60;;;5.85;;
59468;SDS011;45277;52.768;18.262;2022-12-07T00:20:47;12.95;;;7.22;;
59468;SDS011;45277;52.768;18.262;2022-12-07T00:22:18;10.77;;;6.50;;
59468;SDS011;45277;52.768;18.262;2022-12-07T00:23:50;10.48;;;6.20;;
59468;SDS011;45277;52.768;18.262;2022-12-07T00:25:22;11.10;;;6.18;;
59468;SDS011;45277;52.768;18.262;2022-12-07T00:26:54;10.80;;;6.05;;
59468;SDS011;45277;52.768;18.262;2022-12-07T00:28:25;9.10;;;4.82;;
59468;SDS011;45277;52.768;18.262;2022-12-07T00:29:57;8.02;;;4.82;;
59468;SDS011;45277;52.768;18.262;2022-12-07T00:31:30;7.03;;;4.68;;
59468;SDS011;45277;52.768;18.262;2022-12-07T00:33:09;7.93;;;5.15;;
59468;SDS011;45277;52.768;18.262;2022-12-07T00:34:40;9.25;;;5.72;;
59468;SDS011;45277;52.768;18.262;2022-12-07T00:36:14;10.35;;;5.50;;
59468;SDS011;45277;52.768;18.262;2022-12-07T00:37:47;11.50;;;6.57;;
59468;SDS011;45277;52.768;18.262;2022-12-07T00:39:19;8.65;;;5.88;;
59468;SDS011;45277;52.768;18.262;2022-12-07T00:40:57;16.25;;;5.88;;
59468;SDS011;45277;52.768;18.262;2022-12-07T00:42:29;9.57;;;5.20;;
59468;SDS011;45277;52.768;18.262;2022-12-07T00:44:01;7.93;;;5.18;;
59468;SDS011;45277;52.768;18.262;2022-12-07T00:45:33;11.38;;;6.43;;
59468;SDS011;45277;52.768;18.262;2022-12-07T00:47:04;12.32;;;7.85;;
59468;SDS011;45277;52.768;18.262;2022-12-07T00:48:35;14.73;;;5.35;;
59468;SDS011;45277;52.768;18.262;2022-12-07T00:50:08;9.10;;;4.03;;
59468;SDS011;45277;52.768;18.262;2022-12-07T00:51:39;16.52;;;9.52;;
59468;SDS011;45277;52.768;18.262;2022-12-07T00:53:11;13.60;;;7.40;;
59468;SDS011;45277;52.768;18.262;2022-12-07T00:54:42;12.50;;;7.10;;
59468;SDS011;45277;52.768;18.262;2022-12-07T00:56:15;12.77;;;7.93;;
59468;SDS011;45277;52.768;18.262;2022-12-07T00:57:48;14.02;;;7.53;;
59468;SDS011;45277;52.768;18.262;2022-12-07T00:59:20;11.57;;;5.43;;
59468;SDS011;45277;52.768;18.262;2022-12-07T01:00:51;18.15;;;9.90;;
59468;SDS011;45277;52.768;18.262;2022-12-07T01:02:23;17.08;;;8.65;;
59468;SDS011;45277;52.768;18.262;2022-12-07T01:03:55;14.68;;;8.68;;
59468;SDS011;45277;52.768;18.262;2022-12-07T01:05:26;12.55;;;7.28;;
59468;SDS011;45277;52.768;18.262;2022-12-07T01:06:58;16.40;;;9.07;;
59468;SDS011;45277;52.768;18.262;2022-12-07T01:08:30;15.95;;;8.18;;
59468;SDS011;45277;52.768;18.262;2022-12-07T01:10:01;15.20;;;9.00;;
59468;SDS011;45277;52.768;18.262;2022-12-07T01:11:33;10.90;;;6.95;;
59468;SDS011;45277;52.768;18.262;2022-12-07T01:13:04;15.43;;;8.75;;
59468;SDS011;45277;52.768;18.262;2022-12-07T01:14:36;13.38;;;7.63;;
59468;SDS011;45277;52.768;18.262;2022-12-07T01:16:07;17.80;;;9.95;;
59468;SDS011;45277;52.768;18.262;2022-12-07T01:17:41;20.10;;;10.15;;
59468;SDS011;45277;52.768;18.262;2022-12-07T01:19:13;20.42;;;9.95;;
59468;SDS011;45277;52.768;18.262;2022-12-07T01:20:44;20.98;;;10.10;;
59468;SDS011;45277;52.768;18.262;2022-12-07T01:22:27;21.60;;;11.77;;
59468;SDS011;45277;52.768;18.262;2022-12-07T01:23:59;20.80;;;11.23;;
59468;SDS011;45277;52.768;18.262;2022-12-07T01:25:30;20.48;;;9.40;;
59468;SDS011;45277;52.768;18.262;2022-12-07T01:27:02;13.73;;;8.00;;
59468;SDS011;45277;52.768;18.262;2022-12-07T01:28:34;15.88;;;8.23;;
59468;SDS011;45277;52.768;18.262;2022-12-07T01:30:06;17.90;;;8.95;;
59468;SDS011;45277;52.768;18.262;2022-12-07T01:31:37;6.82;;;3.83;;
59468;SDS011;45277;52.768;18.262;2022-12-07T01:33:09;13.38;;;8.00;;
59468;SDS011;45277;52.768;18.262;2022-12-07T01:34:41;16.13;;;8.95;;
59468;SDS011;45277;52.768;18.262;2022-12-07T01:36:16;16.35;;;8.52;;
59468;SDS011;45277;52.768;18.262;2022-12-07T01:37:49;10.90;;;6.80;;
59468;SDS011;45277;52.768;18.262;2022-12-07T01:39:20;12.80;;;7.78;;
59468;SDS011;45277;52.768;18.262;2022-12-07T01:40:55;13.23;;;6.75;;
59468;SDS011;45277;52.768;18.262;2022-12-07T01:42:27;19.80;;;8.98;;
59468;SDS011;45277;52.768;18.262;2022-12-07T01:45:49;21.17;;;10.45;;
59468;SDS011;45277;52.768;18.262;2022-12-07T01:47:21;8.48;;;5.65;;
59468;SDS011;45277;52.768;18.262;2022-12-07T01:48:53;11.52;;;6.40;;
59468;SDS011;45277;52.768;18.262;2022-12-07T01:50:26;14.18;;;8.02;;
59468;SDS011;45277;52.768;18.262;2022-12-07T01:52:06;14.77;;;8.63;;
59468;SDS011;45277;52.768;18.262;2022-12-07T01:53:43;10.70;;;6.35;;
59468;SDS011;45277;52.768;18.262;2022-12-07T01:55:16;19.85;;;9.23;;
59468;SDS011;45277;52.768;18.262;2022-12-07T01:56:49;11.43;;;5.90;;
59468;SDS011;45277;52.768;18.262;2022-12-07T01:58:24;9.05;;;5.47;;
59468;SDS011;45277;52.768;18.262;2022-12-07T01:59:56;15.25;;;8.00;;
59468;SDS011;45277;52.768;18.262;2022-12-07T02:01:28;14.30;;;7.93;;
59468;SDS011;45277;52.768;18.262;2022-12-07T02:03:03;16.50;;;8.80;;
59468;SDS011;45277;52.768;18.262;2022-12-07T02:04:44;13.90;;;6.20;;
59468;SDS011;45277;52.768;18.262;2022-12-07T02:06:17;10.85;;;5.97;;
59468;SDS011;45277;52.768;18.262;2022-12-07T02:07:53;12.63;;;6.72;;
59468;SDS011;45277;52.768;18.262;2022-12-07T02:09:26;12.98;;;7.25;;
59468;SDS011;45277;52.768;18.262;2022-12-07T02:10:57;10.35;;;6.18;;
59468;SDS011;45277;52.768;18.262;2022-12-07T02:12:30;12.57;;;7.68;;
59468;SDS011;45277;52.768;18.262;2022-12-07T02:14:01;13.82;;;7.60;;
59468;SDS011;45277;52.768;18.262;2022-12-07T02:15:39;12.20;;;7.43;;
59468;SDS011;45277;52.768;18.262;2022-12-07T02:27:33;10.82;;;6.40;;
59468;SDS011;45277;52.768;18.262;2022-12-07T02:29:23;14.68;;;6.72;;
59468;SDS011;45277;52.768;18.262;2022-12-07T02:30:58;22.48;;;12.15;;
59468;SDS011;45277;52.768;18.262;2022-12-07T02:32:44;22.27;;;10.93;;
59468;SDS011;45277;52.768;18.262;2022-12-07T02:36:29;9.23;;;6.47;;
59468;SDS011;45277;52.768;18.262;2022-12-07T02:38:26;10.27;;;5.47;;
59468;SDS011;45277;52.768;18.262;2022-12-07T02:40:24;18.92;;;8.20;;
59468;SDS011;45277;52.768;18.262;2022-12-07T02:42:02;11.60;;;7.40;;
59468;SDS011;45277;52.768;18.262;2022-12-07T02:45:44;10.52;;;6.03;;
59468;SDS011;45277;52.768;18.262;2022-12-07T02:47:17;11.65;;;7.00;;
59468;SDS011;45277;52.768;18.262;2022-12-07T02:48:51;16.77;;;8.57;;
59468;SDS011;45277;52.768;18.262;2022-12-07T02:50:25;5.88;;;4.80;;
59468;SDS011;45277;52.768;18.262;2022-12-07T02:51:58;11.20;;;6.63;;
59468;SDS011;45277;52.768;18.262;2022-12-07T02:53:30;13.20;;;6.88;;
59468;SDS011;45277;52.768;18.262;2022-12-07T02:55:10;6.35;;;4.85;;
59468;SDS011;45277;52.768;18.262;2022-12-07T02:59:59;16.73;;;8.05;;
59468;SDS011;45277;52.768;18.262;2022-12-07T03:03:30;8.27;;;5.30;;
59468;SDS011;45277;52.768;18.262;2022-12-07T03:07:06;12.52;;;8.13;;
59468;SDS011;45277;52.768;18.262;2022-12-07T03:09:04;15.38;;;7.65;;
59468;SDS011;45277;52.768;18.262;2022-12-07T03:10:52;9.15;;;6.75;;
59468;SDS011;45277;52.768;18.262;2022-12-07T03:12:32;10.25;;;5.78;;
59468;SDS011;45277;52.768;18.262;2022-12-07T03:14:16;11.18;;;6.53;;
59468;SDS011;45277;52.768;18.262;2022-12-07T03:16:14;17.88;;;6.32;;
59468;SDS011;45277;52.768;18.262;2022-12-07T03:17:51;11.82;;;7.75;;
59468;SDS011;45277;52.768;18.262;2022-12-07T03:19:27;8.85;;;4.88;;
59468;SDS011;45277;52.768;18.262;2022-12-07T03:21:04;20.33;;;8.60;;
59468;SDS011;45277;52.768;18.262;2022-12-07T03:22:41;9.48;;;6.88;;
59468;SDS011;45277;52.768;18.262;2022-12-07T03:24:24;12.02;;;5.75;;
59468;SDS011;45277;52.768;18.262;2022-12-07T03:26:00;12.15;;;7.05;;
59468;SDS011;45277;52.768;18.262;2022-12-07T03:27:40;10.18;;;6.13;;
59468;SDS011;45277;52.768;18.262;2022-12-07T03:29:26;8.50;;;5.70;;
59468;SDS011;45277;52.768;18.262;2022-12-07T03:31:03;10.85;;;7.25;;
59468;SDS011;45277;52.768;18.262;2022-12-07T03:32:44;9.15;;;6.32;;
59468;SDS011;45277;52.768;18.262;2022-12-07T03:34:23;8.77;;;6.07;;
59468;SDS011;45277;52.768;18.262;2022-12-07T03:36:02;13.40;;;7.05;;
59468;SDS011;45277;52.768;18.262;2022-12-07T03:41:19;13.25;;;7.13;;
59468;SDS011;45277;52.768;18.262;2022-12-07T03:42:58;11.35;;;6.80;;
59468;SDS011;45277;52.768;18.262;2022-12-07T03:44:32;14.73;;;8.85;;
59468;SDS011;45277;52.768;18.262;2022-12-07T03:46:20;9.98;;;6.50;;
59468;SDS011;45277;52.768;18.262;2022-12-07T03:49:59;16.92;;;8.35;;
59468;SDS011;45277;52.768;18.262;2022-12-07T03:55:59;18.23;;;8.77;;
59468;SDS011;45277;52.768;18.262;2022-12-07T03:57:33;14.05;;;8.13;;
59468;SDS011;45277;52.768;18.262;2022-12-07T03:59:06;16.00;;;8.00;;
59468;SDS011;45277;52.768;18.262;2022-12-07T04:00:38;16.30;;;9.43;;
59468;SDS011;45277;52.768;18.262;2022-12-07T04:02:11;7.95;;;4.82;;
59468;SDS011;45277;52.768;18.262;2022-12-07T04:03:44;13.07;;;7.22;;
59468;SDS011;45277;52.768;18.262;2022-12-07T04:05:16;10.05;;;7.00;;
59468;SDS011;45277;52.768;18.262;2022-12-07T04:06:47;13.23;;;8.18;;
59468;SDS011;45277;52.768;18.262;2022-12-07T04:08:19;15.02;;;8.57;;
59468;SDS011;45277;52.768;18.262;2022-12-07T04:09:50;15.02;;;5.82;;
59468;SDS011;45277;52.768;18.262;2022-12-07T04:11:22;14.50;;;8.50;;
59468;SDS011;45277;52.768;18.262;2022-12-07T04:12:54;9.82;;;6.15;;
59468;SDS011;45277;52.768;18.262;2022-12-07T04:14:26;14.25;;;7.05;;
59468;SDS011;45277;52.768;18.262;2022-12-07T04:15:57;12.52;;;6.78;;
59468;SDS011;45277;52.768;18.262;2022-12-07T04:17:29;16.00;;;7.93;;
59468;SDS011;45277;52.768;18.262;2022-12-07T04:19:00;7.03;;;4.72;;
59468;SDS011;45277;52.768;18.262;2022-12-07T04:20:32;10.40;;;6.22;;
59468;SDS011;45277;52.768;18.262;2022-12-07T04:22:04;11.43;;;7.45;;
59468;SDS011;45277;52.768;18.262;2022-12-07T04:23:36;14.00;;;7.38;;
59468;SDS011;45277;52.768;18.262;2022-12-07T04:25:08;8.55;;;4.88;;
59468;SDS011;45277;52.768;18.262;2022-12-07T04:26:39;7.20;;;4.95;;
59468;SDS011;45277;52.768;18.262;2022-12-07T04:28:11;7.07;;;4.55;;
59468;SDS011;45277;52.768;18.262;2022-12-07T04:29:43;8.00;;;5.18;;
59468;SDS011;45277;52.768;18.262;2022-12-07T04:31:14;5.78;;;4.65;;
59468;SDS011;45277;52.768;18.262;2022-12-07T04:32:46;4.93;;;3.55;;
59468;SDS011;45277;52.768;18.262;2022-12-07T04:34:18;4.40;;;3.45;;
59468;SDS011;45277;52.768;18.262;2022-12-07T04:35:50;10.13;;;6.03;;
59468;SDS011;45277;52.768;18.262;2022-12-07T04:37:21;9.73;;;5.72;;
59468;SDS011;45277;52.768;18.262;2022-12-07T04:38:54;5.93;;;4.00;;
59468;SDS011;45277;52.768;18.262;2022-12-07T04:40:25;7.75;;;3.78;;
59468;SDS011;45277;52.768;18.262;2022-12-07T04:41:57;10.68;;;5.13;;
59468;SDS011;45277;52.768;18.262;2022-12-07T04:43:30;7.93;;;4.45;;
59468;SDS011;45277;52.768;18.262;2022-12-07T04:45:01;8.18;;;5.43;;
59468;SDS011;45277;52.768;18.262;2022-12-07T04:46:33;6.45;;;4.60;;
59468;SDS011;45277;52.768;18.262;2022-12-07T04:48:05;12.55;;;4.45;;
59468;SDS011;45277;52.768;18.262;2022-12-07T04:49:36;7.10;;;4.68;;
59468;SDS011;45277;52.768;18.262;2022-12-07T04:51:08;4.40;;;3.42;;
59468;SDS011;45277;52.768;18.262;2022-12-07T04:52:39;8.85;;;3.78;;
59468;SDS011;45277;52.768;18.262;2022-12-07T04:54:11;7.03;;;3.85;;
59468;SDS011;45277;52.768;18.262;2022-12-07T04:55:44;6.80;;;3.55;;
59468;SDS011;45277;52.768;18.262;2022-12-07T04:57:16;7.38;;;4.10;;
59468;SDS011;45277;52.768;18.262;2022-12-07T04:58:47;8.30;;;5.22;;
59468;SDS011;45277;52.768;18.262;2022-12-07T05:00:19;8.18;;;4.50;;
59468;SDS011;45277;52.768;18.262;2022-12-07T05:01:51;6.00;;;3.67;;
59468;SDS011;45277;52.768;18.262;2022-12-07T05:03:22;4.32;;;3.00;;
59468;SDS011;45277;52.768;18.262;2022-12-07T05:04:53;7.63;;;5.30;;
59468;SDS011;45277;52.768;18.262;2022-12-07T05:06:25;5.20;;;3.30;;
59468;SDS011;45277;52.768;18.262;2022-12-07T05:07:56;10.45;;;5.60;;
59468;SDS011;45277;52.768;18.262;2022-12-07T05:09:28;10.23;;;5.78;;
59468;SDS011;45277;52.768;18.262;2022-12-07T05:11:00;11.68;;;5.45;;
59468;SDS011;45277;52.768;18.262;2022-12-07T05:12:32;9.43;;;5.97;;
59468;SDS011;45277;52.768;18.262;2022-12-07T05:14:11;8.93;;;5.18;;
59468;SDS011;45277;52.768;18.262;2022-12-07T05:15:47;12.25;;;6.38;;
59468;SDS011;45277;52.768;18.262;2022-12-07T05:17:19;8.45;;;5.30;;
59468;SDS011;45277;52.768;18.262;2022-12-07T05:18:50;8.40;;;5.43;;
59468;SDS011;45277;52.768;18.262;2022-12-07T05:20:22;14.13;;;6.88;;
59468;SDS011;45277;52.768;18.262;2022-12-07T05:21:54;8.05;;;4.75;;
59468;SDS011;45277;52.768;18.262;2022-12-07T05:23:25;14.98;;;9.65;;
59468;SDS011;45277;52.768;18.262;2022-12-07T05:24:57;15.50;;;7.45;;
59468;SDS011;45277;52.768;18.262;2022-12-07T05:26:29;23.88;;;12.05;;
59468;SDS011;45277;52.768;18.262;2022-12-07T05:28:01;15.80;;;8.18;;
59468;SDS011;45277;52.768;18.262;2022-12-07T05:29:33;17.10;;;9.70;;
59468;SDS011;45277;52.768;18.262;2022-12-07T05:31:04;18.08;;;12.60;;
59468;SDS011;45277;52.768;18.262;2022-12-07T05:32:36;9.05;;;5.63;;
59468;SDS011;45277;52.768;18.262;2022-12-07T05:34:11;12.38;;;5.43;;
59468;SDS011;45277;52.768;18.262;2022-12-07T05:35:43;21.27;;;9.00;;
59468;SDS011;45277;52.768;18.262;2022-12-07T05:37:14;10.98;;;5.32;;
59468;SDS011;45277;52.768;18.262;2022-12-07T05:38:46;9.65;;;5.55;;
59468;SDS011;45277;52.768;18.262;2022-12-07T05:40:17;5.10;;;3.55;;
59468;SDS011;45277;52.768;18.262;2022-12-07T05:41:49;13.13;;;6.50;;
59468;SDS011;45277;52.768;18.262;2022-12-07T05:43:39;10.77;;;5.05;;
59468;SDS011;45277;52.768;18.262;2022-12-07T05:45:11;20.25;;;5.60;;
59468;SDS011;45277;52.768;18.262;2022-12-07T05:46:42;21.00;;;8.07;;
59468;SDS011;45277;52.768;18.262;2022-12-07T05:48:14;16.67;;;7.50;;
59468;SDS011;45277;52.768;18.262;2022-12-07T05:49:45;7.25;;;5.70;;
59468;SDS011;45277;52.768;18.262;2022-12-07T05:51:17;18.17;;;7.85;;
59468;SDS011;45277;52.768;18.262;2022-12-07T05:52:49;13.10;;;7.20;;
59468;SDS011;45277;52.768;18.262;2022-12-07T05:54:21;17.90;;;8.23;;
59468;SDS011;45277;52.768;18.262;2022-12-07T05:55:52;24.27;;;9.65;;
59468;SDS011;45277;52.768;18.262;2022-12-07T05:57:24;16.95;;;6.72;;
59468;SDS011;45277;52.768;18.262;2022-12-07T05:58:56;17.45;;;8.02;;
59468;SDS011;45277;52.768;18.262;2022-12-07T06:00:46;19.38;;;7.68;;
59468;SDS011;45277;52.768;18.262;2022-12-07T06:02:17;17.17;;;8.50;;
59468;SDS011;45277;52.768;18.262;2022-12-07T06:03:49;20.08;;;7.28;;
59468;SDS011;45277;52.768;18.262;2022-12-07T06:05:20;18.55;;;8.60;;
59468;SDS011;45277;52.768;18.262;2022-12-07T06:06:52;7.80;;;4.90;;
59468;SDS011;45277;52.768;18.262;2022-12-07T06:08:23;15.60;;;6.68;;
59468;SDS011;45277;52.768;18.262;2022-12-07T06:09:55;11.35;;;5.55;;
59468;SDS011;45277;52.768;18.262;2022-12-07T06:11:27;12.57;;;6.15;;
59468;SDS011;45277;52.768;18.262;2022-12-07T06:13:16;11.38;;;6.55;;
59468;SDS011;45277;52.768;18.262;2022-12-07T06:14:48;13.15;;;5.97;;
59468;SDS011;45277;52.768;18.262;2022-12-07T06:16:20;21.92;;;9.98;;
59468;SDS011;45277;52.768;18.262;2022-12-07T06:17:51;14.50;;;6.95;;
59468;SDS011;45277;52.768;18.262;2022-12-07T06:19:22;10.60;;;6.70;;
59468;SDS011;45277;52.768;18.262;2022-12-07T06:20:54;15.00;;;7.65;;
59468;SDS011;45277;52.768;18.262;2022-12-07T06:22:25;10.55;;;5.47;;
59468;SDS011;45277;52.768;18.262;2022-12-07T06:23:57;16.58;;;8.73;;
59468;SDS011;45277;52.768;18.262;2022-12-07T06:25:29;14.38;;;5.55;;
59468;SDS011;45277;52.768;18.262;2022-12-07T06:27:00;27.27;;;11.65;;
59468;SDS011;45277;52.768;18.262;2022-12-07T06:28:32;29.08;;;12.88;;
59468;SDS011;45277;52.768;18.262;2022-12-07T06:30:04;15.43;;;8.18;;
59468;SDS011;45277;52.768;18.262;2022-12-07T06:31:37;23.73;;;7.43;;
59468;SDS011;45277;52.768;18.262;2022-12-07T06:33:09;13.57;;;6.85;;
59468;SDS011;45277;52.768;18.262;2022-12-07T06:34:41;9.85;;;5.63;;
59468;SDS011;45277;52.768;18.262;2022-12-07T06:36:12;13.38;;;6.43;;
59468;SDS011;45277;52.768;18.262;2022-12-07T06:37:43;8.15;;;4.75;;
59468;SDS011;45277;52.768;18.262;2022-12-07T06:39:15;12.80;;;5.95;;
59468;SDS011;45277;52.768;18.262;2022-12-07T06:40:47;17.60;;;7.43;;
59468;SDS011;45277;52.768;18.262;2022-12-07T06:42:18;16.17;;;5.68;;
59468;SDS011;45277;52.768;18.262;2022-12-07T06:43:50;8.75;;;5.32;;
59468;SDS011;45277;52.768;18.262;2022-12-07T06:45:22;13.15;;;5.28;;
59468;SDS011;45277;52.768;18.262;2022-12-07T06:46:53;13.95;;;7.65;;
59468;SDS011;45277;52.768;18.262;2022-12-07T06:48:25;11.77;;;6.13;;
59468;SDS011;45277;52.768;18.262;2022-12-07T06:49:57;9.98;;;5.97;;
59468;SDS011;45277;52.768;18.262;2022-12-07T06:51:28;16.30;;;7.88;;
59468;SDS011;45277;52.768;18.262;2022-12-07T06:53:00;7.90;;;6.35;;
59468;SDS011;45277;52.768;18.262;2022-12-07T06:54:31;8.50;;;5.57;;
59468;SDS011;45277;52.768;18.262;2022-12-07T06:56:03;11.93;;;6.78;;
59468;SDS011;45277;52.768;18.262;2022-12-07T06:57:35;16.75;;;8.18;;
59468;SDS011;45277;52.768;18.262;2022-12-07T06:59:06;8.63;;;5.32;;
59468;SDS011;45277;52.768;18.262;2022-12-07T07:00:38;17.27;;;8.38;;
59468;SDS011;45277;52.768;18.262;2022-12-07T07:02:10;12.45;;;7.43;;
59468;SDS011;45277;52.768;18.262;2022-12-07T07:03:41;6.97;;;4.93;;
59468;SDS011;45277;52.768;18.262;2022-12-07T07:05:14;13.70;;;8.02;;
59468;SDS011;45277;52.768;18.262;2022-12-07T07:06:47;15.95;;;5.75;;
59468;SDS011;45277;52.768;18.262;2022-12-07T07:08:18;6.30;;;4.97;;
59468;SDS011;45277;52.768;18.262;2022-12-07T07:09:50;10.38;;;6.90;;
59468;SDS011;45277;52.768;18.262;2022-12-07T07:11:22;8.52;;;6.07;;
59468;SDS011;45277;52.768;18.262;2022-12-07T07:12:53;10.30;;;6.47;;
59468;SDS011;45277;52.768;18.262;2022-12-07T07:14:25;14.68;;;8.82;;
59468;SDS011;45277;52.768;18.262;2022-12-07T07:15:56;8.15;;;6.25;;
59468;SDS011;45277;52.768;18.262;2022-12-07T07:17:28;10.00;;;6.30;;
59468;SDS011;45277;52.768;18.262;2022-12-07T07:18:59;13.13;;;8.00;;
59468;SDS011;45277;52.768;18.262;2022-12-07T07:20:31;10.75;;;6.55;;
59468;SDS011;45277;52.768;18.262;2022-12-07T07:22:03;16.48;;;9.32;;
59468;SDS011;45277;52.768;18.262;2022-12-07T07:23:34;14.70;;;8.93;;
59468;SDS011;45277;52.768;18.262;2022-12-07T07:25:06;8.60;;;6.03;;
59468;SDS011;45277;52.768;18.262;2022-12-07T07:26:38;24.23;;;7.70;;
59468;SDS011;45277;52.768;18.262;2022-12-07T07:28:09;16.83;;;9.27;;
59468;SDS011;45277;52.768;18.262;2022-12-07T07:29:41;13.35;;;7.20;;
59468;SDS011;45277;52.768;18.262;2022-12-07T07:31:12;12.95;;;8.32;;
59468;SDS011;45277;52.768;18.262;2022-12-07T07:32:44;13.25;;;8.23;;
59468;SDS011;45277;52.768;18.262;2022-12-07T07:34:15;11.82;;;7.03;;
59468;SDS011;45277;52.768;18.262;2022-12-07T07:35:47;9.80;;;5.95;;
59468;SDS011;45277;52.768;18.262;2022-12-07T07:37:18;9.18;;;6.53;;
59468;SDS011;45277;52.768;18.262;2022-12-07T07:38:50;13.98;;;7.72;;
59468;SDS011;45277;52.768;18.262;2022-12-07T07:40:22;16.83;;;8.77;;
59468;SDS011;45277;52.768;18.262;2022-12-07T07:41:53;19.10;;;12.10;;
59468;SDS011;45277;52.768;18.262;2022-12-07T07:43:25;31.70;;;17.73;;
59468;SDS011;45277;52.768;18.262;2022-12-07T07:44:56;15.00;;;10.43;;
59468;SDS011;45277;52.768;18.262;2022-12-07T07:46:28;38.88;;;24.67;;
59468;SDS011;45277;52.768;18.262;2022-12-07T07:48:00;70.15;;;35.58;;
59468;SDS011;45277;52.768;18.262;2022-12-07T07:49:31;48.45;;;28.23;;
59468;SDS011;45277;52.768;18.262;2022-12-07T07:51:06;13.48;;;9.35;;
59468;SDS011;45277;52.768;18.262;2022-12-07T07:52:39;14.98;;;10.10;;
59468;SDS011;45277;52.768;18.262;2022-12-07T07:54:10;34.50;;;22.98;;
59468;SDS011;45277;52.768;18.262;2022-12-07T07:55:49;43.78;;;27.17;;
59468;SDS011;45277;52.768;18.262;2022-12-07T07:57:24;47.42;;;25.98;;
59468;SDS011;45277;52.768;18.262;2022-12-07T07:58:55;62.13;;;34.50;;
59468;SDS011;45277;52.768;18.262;2022-12-07T08:00:27;59.97;;;30.38;;
59468;SDS011;45277;52.768;18.262;2022-12-07T08:01:59;32.05;;;17.30;;
59468;SDS011;45277;52.768;18.262;2022-12-07T08:03:30;17.83;;;11.48;;
59468;SDS011;45277;52.768;18.262;2022-12-07T08:05:02;17.17;;;10.63;;
59468;SDS011;45277;52.768;18.262;2022-12-07T08:06:34;10.73;;;7.18;;
59468;SDS011;45277;52.768;18.262;2022-12-07T08:08:05;13.93;;;8.55;;
59468;SDS011;45277;52.768;18.262;2022-12-07T08:09:37;9.68;;;5.40;;
59468;SDS011;45277;52.768;18.262;2022-12-07T08:11:09;13.40;;;8.35;;
59468;SDS011;45277;52.768;18.262;2022-12-07T08:12:41;18.67;;;11.43;;
59468;SDS011;45277;52.768;18.262;2022-12-07T08:14:32;13.75;;;8.43;;
59468;SDS011;45277;52.768;18.262;2022-12-07T08:16:06;13.45;;;8.75;;
59468;SDS011;45277;52.768;18.262;2022-12-07T08:17:39;5.45;;;4.65;;
59468;SDS011;45277;52.768;18.262;2022-12-07T08:19:10;15.43;;;8.77;;
59468;SDS011;45277;52.768;18.262;2022-12-07T08:20:43;15.32;;;8.85;;
59468;SDS011;45277;52.768;18.262;2022-12-07T08:22:17;12.48;;;7.40;;
59468;SDS011;45277;52.768;18.262;2022-12-07T08:23:52;7.28;;;5.13;;
59468;SDS011;45277;52.768;18.262;2022-12-07T08:25:24;12.13;;;7.65;;
59468;SDS011;45277;52.768;18.262;2022-12-07T08:26:56;17.08;;;6.10;;
59468;SDS011;45277;52.768;18.262;2022-12-07T08:28:28;7.43;;;4.85;;
59468;SDS011;45277;52.768;18.262;2022-12-07T08:30:00;10.98;;;6.97;;
59468;SDS011;45277;52.768;18.262;2022-12-07T08:31:31;7.97;;;5.18;;
59468;SDS011;45277;52.768;18.262;2022-12-07T08:33:03;19.85;;;10.10;;
59468;SDS011;45277;52.768;18.262;2022-12-07T08:34:38;15.57;;;8.85;;
59468;SDS011;45277;52.768;18.262;2022-12-07T08:36:10;14.20;;;7.50;;
59468;SDS011;45277;52.768;18.262;2022-12-07T08:37:43;16.30;;;6.68;;
59468;SDS011;45277;52.768;18.262;2022-12-07T08:39:15;8.95;;;6.38;;
59468;SDS011;45277;52.768;18.262;2022-12-07T08:40:56;7.90;;;4.47;;
59468;SDS011;45277;52.768;18.262;2022-12-07T08:42:28;9.52;;;6.70;;
59468;SDS011;45277;52.768;18.262;2022-12-07T08:44:08;11.32;;;6.95;;
59468;SDS011;45277;52.768;18.262;2022-12-07T08:45:39;10.90;;;6.78;;
59468;SDS011;45277;52.768;18.262;2022-12-07T08:47:11;13.55;;;8.57;;
59468;SDS011;45277;52.768;18.262;2022-12-07T08:48:48;16.45;;;8.57;;
59468;SDS011;45277;52.768;18.262;2022-12-07T08:50:24;12.05;;;7.85;;
59468;SDS011;45277;52.768;18.262;2022-12-07T08:51:56;7.22;;;5.20;;
59468;SDS011;45277;52.768;18.262;2022-12-07T08:53:28;15.23;;;9.93;;
59468;SDS011;45277;52.768;18.262;2022-12-07T08:55:01;10.05;;;6.90;;
59468;SDS011;45277;52.768;18.262;2022-12-07T08:56:35;11.90;;;8.32;;
59468;SDS011;45277;52.768;18.262;2022-12-07T08:58:07;9.48;;;6.50;;
59468;SDS011;45277;52.768;18.262;2022-12-07T08:59:39;11.93;;;7.65;;
59468;SDS011;45277;52.768;18.262;2022-12-07T09:01:10;6.85;;;4.93;;
59468;SDS011;45277;52.768;18.262;2022-12-07T09:02:43;13.13;;;7.50;;
59468;SDS011;45277;52.768;18.262;2022-12-07T09:04:15;7.88;;;5.25;;
59468;SDS011;45277;52.768;18.262;2022-12-07T09:05:47;11.05;;;5.85;;
59468;SDS011;45277;52.768;18.262;2022-12-07T09:07:18;19.60;;;10.48;;
59468;SDS011;45277;52.768;18.262;2022-12-07T09:08:51;8.77;;;5.30;;
59468;SDS011;45277;52.768;18.262;2022-12-07T09:10:25;12.18;;;7.22;;
59468;SDS011;45277;52.768;18.262;2022-12-07T09:11:57;9.93;;;4.90;;
59468;SDS011;45277;52.768;18.262;2022-12-07T09:13:29;6.45;;;4.28;;
59468;SDS011;45277;52.768;18.262;2022-12-07T09:15:00;7.03;;;5.10;;
59468;SDS011;45277;52.768;18.262;2022-12-07T09:16:32;3.65;;;3.22;;
59468;SDS011;45277;52.768;18.262;2022-12-07T09:18:03;14.70;;;8.70;;
59468;SDS011;45277;52.768;18.262;2022-12-07T09:19:35;24.10;;;11.80;;
59468;SDS011;45277;52.768;18.262;2022-12-07T09:21:07;12.23;;;7.05;;
59468;SDS011;45277;52.768;18.262;2022-12-07T09:22:39;27.38;;;14.07;;
59468;SDS011;45277;52.768;18.262;2022-12-07T09:24:11;13.73;;;8.38;;
59468;SDS011;45277;52.768;18.262;2022-12-07T09:25:44;12.23;;;7.43;;
59468;SDS011;45277;52.768;18.262;2022-12-07T09:27:15;8.32;;;5.78;;
59468;SDS011;45277;52.768;18.262;2022-12-07T09:28:48;5.20;;;4.70;;
59468;SDS011;45277;52.768;18.262;2022-12-07T09:30:20;8.02;;;6.20;;
59468;SDS011;45277;52.768;18.262;2022-12-07T09:31:51;10.43;;;6.57;;
59468;SDS011;45277;52.768;18.262;2022-12-07T09:33:23;11.05;;;7.22;;
59468;SDS011;45277;52.768;18.262;2022-12-07T09:34:55;7.53;;;5.35;;
59468;SDS011;45277;52.768;18.262;2022-12-07T09:36:28;12.95;;;7.65;;
59468;SDS011;45277;52.768;18.262;2022-12-07T09:37:59;11.00;;;6.93;;
59468;SDS011;45277;52.768;18.262;2022-12-07T09:39:31;13.02;;;7.28;;
59468;SDS011;45277;52.768;18.262;2022-12-07T09:41:06;12.65;;;7.70;;